Home > Products > Valid Products > TAF

000
FTUS43 KTOP 201200 AAA
TAFTOP
TAF AMD
KTOP 201249Z 2013/2112 20008KT 2SM BR SKC
     FM201400 22011KT P6SM SCT090
     FM202000 26008KT P6SM VCTS BKN040CB
     FM210200 32005KT P6SM BKN050=



000
FTUS43 KTOP 201100
TAFTOP
TAF
KTOP 201120Z 2012/2112 20008KT 5SM BR SKC
     FM201300 24011KT P6SM SCT090
     FM202000 27008KT P6SM VCTS BKN040CB
     FM210200 32005KT P6SM BKN050=



000
FTUS43 KTOP 200500
TAFTOP
TAF
KTOP 200520Z 2006/2106 18010KT 6SM BR BKN250
     FM200800 20008KT 4SM BR FEW010 BKN250
     FM201300 24011KT P6SM SCT040
     FM202200 27008KT P6SM VCTS BKN040CB
     FM210200 32005KT P6SM BKN050=



000
FTUS43 KTOP 192300
TAFTOP
TAF
KTOP 192328Z 2000/2024 18010KT P6SM SKC
     FM200900 22005KT 5SM BR SCT010
     FM201500 24007KT P6SM SCT040=



000
FTUS43 KTOP 191700
TAFTOP
TAF
KTOP 191728Z 1918/2018 15008KT P6SM OVC010
     FM191900 18010KT P6SM FEW025
     FM201100 22005KT 5SM BR SCT005
     FM201500 23007KT P6SM FEW040=



000
FTUS43 KTOP 191100
TAFTOP
TAF
KTOP 191120Z 1912/2012 13005KT 5SM BR BKN005
      TEMPO 1912/1916 1SM BR OVC004
     FM191700 16008KT P6SM SCT020
     FM191900 18010KT P6SM FEW025=



000
FTUS43 KTOP 191000 AAA
TAFTOP
TAF AMD
KTOP 191006Z 1910/2006 13005KT 3SM BR BKN005
      TEMPO 1910/1914 1SM BR OVC004
     FM191700 17008KT P6SM SCT020
     FM191900 18010KT P6SM FEW025=



000
FTUS43 KTOP 190500
TAFTOP
TAF
KTOP 190520Z 1906/2006 11003KT 5SM BR SCT020
     FM190800 13005KT 3SM BR SCT007 BKN015
      TEMPO 1910/1913 1SM BR OVC007
     FM191600 17008KT P6SM SCT020
     FM191900 18010KT P6SM FEW025=



000
FTUS43 KTOP 190200 AAA
TAFTOP
TAF AMD
KTOP 190241Z 1903/1924 09008KT 6SM BR SCT015
     FM190900 12004KT 3SM BR BKN007
      TEMPO 1910/1913 1SM BR OVC007
     FM191500 17008KT P6SM BKN020
     FM191900 18011KT P6SM SCT050=



000
FTUS43 KTOP 182300
TAFTOP
TAF
KTOP 182334Z 1900/1924 09008KT P6SM BKN018
      TEMPO 1900/1904 SCT018
     FM190900 12004KT 3SM BR BKN007
      TEMPO 1910/1913 1SM BR OVC007
     FM191500 17008KT P6SM BKN020
     FM191900 18011KT P6SM SCT050=



000
FTUS43 KTOP 181700
TAFTOP
TAF
KTOP 181730Z 1818/1918 10008KT 6SM BR BKN009
     FM182000 10008KT P6SM BKN015
      TEMPO 1822/1902 SCT015
     FM190800 12004KT 3SM BR BKN007
     FM191600 16007KT P6SM BKN015=



000
FTUS43 KTOP 181500 AAB
TAFTOP
TAF AMD
KTOP 181533Z 1816/1912 09010KT 5SM BR BKN007
     FM182000 10008KT P6SM SCT150
     FM190800 12004KT 4SM BR BKN007=



000
FTUS43 KTOP 181400 AAA
TAFTOP
TAF AMD
KTOP 181443Z 1815/1912 09010KT 5SM BR BKN007
     FM181600 10008KT P6SM SCT150
     FM190800 12004KT 4SM BR BKN007=



000
FTUS43 KTOP 181100 CCA
TAFTOP
TAF COR
KTOP 181155Z 1812/1912 08006KT 6SM BR BKN008
     FM181400 09006KT P6SM SCT025 SCT150
     FM181600 10008KT P6SM SCT150
     FM190800 12004KT 4SM BR BKN007=



000
FTUS43 KTOP 181100
TAFTOP
TAF
KTOP 181121Z 1812/1912 08006KT 6SM BR BKN008
     FM181800 09006KT P6SM BKN015
     FM182000 10008KT P6SM SCT025 BKN150
     FM190800 12004KT 4SM BR BKN007=



000
FTUS43 KTOP 180900 AAB
TAFTOP
TAF AMD
KTOP 180937Z 1810/1906 08004KT 3SM BR BKN005
     FM181700 11008KT P6SM SCT025 BKN150=



000
FTUS43 KTOP 180800 AAA
TAFTOP
TAF AMD
KTOP 180822Z 1808/1906 08004KT 6SM BR FEW005 BKN100
      TEMPO 1808/1812 2SM BR BKN005
     FM181700 11008KT P6SM SCT025 BKN150=



000
FTUS43 KTOP 180500
TAFTOP
TAF
KTOP 180520Z 1806/1906 08004KT 1/2SM FG BKN002
      TEMPO 1806/1809 2SM BR SCT002
     FM181400 10009KT 2SM BR BKN008
     FM181600 10009KT 6SM BR BKN015
     FM181700 11008KT P6SM SCT025 BKN150=



000
FTUS43 KTOP 180400 AAB
TAFTOP
TAF AMD
KTOP 180417Z 1804/1824 08003KT 2SM BR SCT004
     FM180700 08004KT 1SM BR SCT002
      TEMPO 1810/1813 1/2SM FG BKN002
     FM181400 10009KT 2SM BR BKN008
     FM181500 10009KT 6SM BR BKN015
     FM181700 11008KT P6SM SCT025 BKN150=



000
FTUS43 KTOP 180300 AAA
TAFTOP
TAF AMD
KTOP 180337Z 1804/1824 07003KT 4SM BR FEW015
     FM180600 08003KT 2SM BR SCT004
     FM180800 08004KT 1SM BR SCT002
      TEMPO 1810/1813 1/2SM FG BKN002
     FM181400 10009KT 2SM BR BKN008
     FM181500 10009KT 6SM BR BKN015
     FM181700 11008KT P6SM SCT025 BKN150=



000
FTUS43 KTOP 172300
TAFTOP
TAF
KTOP 172332Z 1800/1824 09006KT P6SM FEW025
     FM181000 09006KT 6SM BR SCT004
      TEMPO 1811/1814 3SM BR
     FM181500 10009KT P6SM SCT015=



000
FTUS43 KTOP 172000 AAB
TAFTOP
TAF AMD
KTOP 172000Z 1720/1818 08006KT P6SM OVC021
     FM172300 08006KT P6SM SCT025
     FM181000 09006KT 6SM BR SCT150
      TEMPO 1811/1814 3SM BR=



000
FTUS43 KTOP 171900 AAA
TAFTOP
TAF AMD
KTOP 171904Z 1719/1818 06004KT P6SM OVC021
     FM172100 07006KT P6SM SCT025
     FM181000 09006KT 6SM BR SCT150
      TEMPO 1811/1814 3SM BR=



000
FTUS43 KTOP 171700
TAFTOP
TAF
KTOP 171720Z 1718/1818 06004KT 6SM BR SCT010 OVC021
     FM171930 07006KT P6SM SCT025
     FM181000 09006KT 6SM BR SCT150
      TEMPO 1811/1814 3SM BR=



000
FTUS43 KTOP 171500 AAB
TAFTOP
TAF AMD
KTOP 171548Z 1716/1812 13004KT 2SM BR OVC005
     FM171700 06004KT 5SM BR OVC013
     FM171900 08006KT P6SM SCT020
     FM180600 08005KT 4SM BR SCT015 SCT150=



000
FTUS43 KTOP 171400 AAA
TAFTOP
TAF AMD
KTOP 171417Z 1714/1812 13004KT 3SM BR OVC005
     FM171600 06004KT 6SM BR OVC013
     FM171900 08006KT P6SM SCT020
     FM180600 08005KT 4SM BR SCT015 SCT150=



    US Dept of Commerce
    National Oceanic and Atmospheric Administration
    National Weather Service
    1325 East West Highway
    Silver Spring, MD 20910
    Page Author: NWS Internet Services Team
Disclaimer
Information Quality
Credits
Glossary
Privacy Policy
Freedom of Information Act (FOIA)
About Us
Career Opportunities